Langdon, ND

01:13 CDT le 31 octobre 2014 (GMT -0500)
Cavalier | Change Station
CLOSE
Current Station
Aéroport
Location: Cavalier,
Altitude: 892 ft
Stations météo à proximité

Alt. 892 ft 48.78 °N, 97.63 °W | Updated 18 minutes ago

Ciel dégagé
Ciel dégagé
19 ° F
Paraît 13 ° F
N
5
Vent Variable Vent de NNO

Aujourd'hui
Haut(e) -- | Bas -- ° F
--% Risque de précip.
Hier
Haut(e) -- | Bas -- ° F
Precip. -- pouce
8:18 AM 6:14 PM
Premier quartier, 52% visible
Pression 30.61 pouce
Visibilité 10.0 Miles terrestres
Nuages Ciel dégagé
Refroidissement éolien 13 ° F
Point de rosée 14 ° F
Humidité 80%
Précipitations 0.00 pouce
Profondeur de la couche neigeuse Non disponible.
UV 0 sur 12
Pollen .80 sur 12
Qualité de l'air Non disponible.
Flu Activity Non disponible.
METAR K2C8 310555Z AUTO 34004KT 10SM CLR M07/M10 A3061 RMK AO2

More Conditions Fewer Conditions

Pression 30.61 pouce
Visibilité 10.0 Miles terrestres
Nuages Ciel dégagé
Refroidissement éolien 13 ° F
Point de rosée 14 ° F
Humidité 80%
Précipitations 0.00 pouce
Profondeur de la couche neigeuse Non disponible.
UV 0 sur 12
Pollen .80 sur 12
Qualité de l'air Non disponible.
Flu Activity Non disponible.
METAR K2C8 310555Z AUTO 34004KT 10SM CLR M07/M10 A3061 RMK AO2

More Conditions Fewer Conditions

10-Day Weather Forecast

Almanac

Astronomie

Oct. 31, 2014 Lever Coucher
Temps réel
Crépuscule civil
Crépuscule nautique
Crépuscule astronomique
Lune
Durée de lumière visible
Longueur du jour
Tomorrow will be .
, % of the Moon is Illuminated

Extrêmes aujourd'hui

State Highs State Lows

Community

WunderPhotos

Upload Photos

1,766,571 Photos téléchargées !

WunderBlogs® & News

Nearby

Qualité de l'air

  Qualité de l'air Indice de la qualité de l'air Polluant
Not available.

Épaisseur de neige

Station Depth Altitude

Activité sismique

Ville Distance Mag. Time & Date
Minimum magnitude displayed is 2.5.

Températures des eaux côtières

Lieu Température

Stations météo à proximité